sensor_id;sensor_type;location;lat;lon;timestamp;pressure;altitude;pressure_sealevel;temperature;humidity
62402;BME280;48440;51.224;22.506;2023-04-05T00:01:25;99625.97;;;0.03;67.25
62402;BME280;48440;51.224;22.506;2023-04-05T00:03:51;99630.03;;;-0.01;67.72
62402;BME280;48440;51.224;22.506;2023-04-05T00:06:19;99620.38;;;-0.02;67.66
62402;BME280;48440;51.224;22.506;2023-04-05T00:08:46;99619.56;;;-0.03;67.54
62402;BME280;48440;51.224;22.506;2023-04-05T00:11:17;99618.72;;;-0.03;68.01
62402;BME280;48440;51.224;22.506;2023-04-05T00:13:42;99613.91;;;-0.08;67.88
62402;BME280;48440;51.224;22.506;2023-04-05T00:16:08;99607.91;;;-0.10;67.95
62402;BME280;48440;51.224;22.506;2023-04-05T00:18:33;99601.41;;;-0.07;67.81
62402;BME280;48440;51.224;22.506;2023-04-05T00:20:59;99605.06;;;-0.08;67.70
62402;BME280;48440;51.224;22.506;2023-04-05T00:23:25;99613.09;;;-0.08;67.74
62402;BME280;48440;51.224;22.506;2023-04-05T00:25:51;99601.47;;;-0.15;67.89
62402;BME280;48440;51.224;22.506;2023-04-05T00:28:16;99603.94;;;-0.14;68.41
62402;BME280;48440;51.224;22.506;2023-04-05T00:30:42;99600.97;;;-0.19;68.29
62402;BME280;48440;51.224;22.506;2023-04-05T00:33:07;99603.66;;;-0.19;68.33
62402;BME280;48440;51.224;22.506;2023-04-05T00:35:38;99598.84;;;-0.23;68.56
62402;BME280;48440;51.224;22.506;2023-04-05T00:38:06;99603.16;;;-0.22;68.56
62402;BME280;48440;51.224;22.506;2023-04-05T00:40:31;99597.19;;;-0.24;68.48
62402;BME280;48440;51.224;22.506;2023-04-05T00:42:57;99602.34;;;-0.23;68.41
62402;BME280;48440;51.224;22.506;2023-04-05T00:45:22;99601.16;;;-0.20;68.40
62402;BME280;48440;51.224;22.506;2023-04-05T00:47:49;99601.50;;;-0.23;68.46
62402;BME280;48440;51.224;22.506;2023-04-05T00:50:15;99600.41;;;-0.29;68.56
62402;BME280;48440;51.224;22.506;2023-04-05T00:52:41;99600.22;;;-0.27;68.33
62402;BME280;48440;51.224;22.506;2023-04-05T00:55:09;99607.56;;;-0.29;69.05
62402;BME280;48440;51.224;22.506;2023-04-05T00:57:34;99600.03;;;-0.26;68.76
62402;BME280;48440;51.224;22.506;2023-04-05T01:00:05;99599.84;;;-0.24;69.16
62402;BME280;48440;51.224;22.506;2023-04-05T01:02:40;99610.91;;;-0.27;68.85
62402;BME280;48440;51.224;22.506;2023-04-05T01:10:31;99606.78;;;-0.38;69.42
62402;BME280;48440;51.224;22.506;2023-04-05T01:13:00;99609.81;;;-0.41;69.45
62402;BME280;48440;51.224;22.506;2023-04-05T01:15:25;99603.00;;;-0.44;69.53
62402;BME280;48440;51.224;22.506;2023-04-05T01:17:51;99611.66;;;-0.42;69.57
62402;BME280;48440;51.224;22.506;2023-04-05T01:20:18;99610.81;;;-0.42;69.42
62402;BME280;48440;51.224;22.506;2023-04-05T01:31:14;99609.13;;;-0.35;70.17
62402;BME280;48440;51.224;22.506;2023-04-05T01:36:40;99605.44;;;-0.34;70.42
62402;BME280;48440;51.224;22.506;2023-04-05T01:39:10;99603.25;;;-0.30;70.23
62402;BME280;48440;51.224;22.506;2023-04-05T01:41:40;99604.25;;;-0.31;70.14
62402;BME280;48440;51.224;22.506;2023-04-05T01:44:06;99597.19;;;-0.24;70.46
62402;BME280;48440;51.224;22.506;2023-04-05T01:46:31;99598.00;;;-0.24;69.89
62402;BME280;48440;51.224;22.506;2023-04-05T01:48:57;99597.19;;;-0.24;70.21
62402;BME280;48440;51.224;22.506;2023-04-05T01:51:22;99596.66;;;-0.20;70.04
62402;BME280;48440;51.224;22.506;2023-04-05T01:53:48;99600.44;;;-0.14;70.08
62402;BME280;48440;51.224;22.506;2023-04-05T01:56:16;99597.59;;;-0.13;70.01
62402;BME280;48440;51.224;22.506;2023-04-05T01:58:41;99590.25;;;-0.11;69.86
62402;BME280;48440;51.224;22.506;2023-04-05T02:01:07;99594.22;;;-0.07;69.27
62402;BME280;48440;51.224;22.506;2023-04-05T02:03:32;99595.41;;;-0.09;69.65
62402;BME280;48440;51.224;22.506;2023-04-05T02:05:58;99597.25;;;-0.10;69.42
62402;BME280;48440;51.224;22.506;2023-04-05T02:08:23;99596.78;;;-0.13;69.54
62402;BME280;48440;51.224;22.506;2023-04-05T02:10:51;99596.47;;;-0.18;69.66
62402;BME280;48440;51.224;22.506;2023-04-05T02:13:17;99597.66;;;-0.21;69.92
62402;BME280;48440;51.224;22.506;2023-04-05T02:15:49;99594.81;;;-0.19;70.24
62402;BME280;48440;51.224;22.506;2023-04-05T02:18:15;99596.81;;;-0.21;70.42
62402;BME280;48440;51.224;22.506;2023-04-05T02:20:50;99592.69;;;-0.24;70.35
62402;BME280;48440;51.224;22.506;2023-04-05T02:23:17;99590.41;;;-0.27;70.07
62402;BME280;48440;51.224;22.506;2023-04-05T02:25:43;99588.34;;;-0.25;69.98
62402;BME280;48440;51.224;22.506;2023-04-05T02:28:08;99591.50;;;-0.21;70.04
62402;BME280;48440;51.224;22.506;2023-04-05T02:30:34;99589.66;;;-0.21;70.06
62402;BME280;48440;51.224;22.506;2023-04-05T02:32:59;99587.16;;;-0.22;69.85
62402;BME280;48440;51.224;22.506;2023-04-05T02:35:26;99599.13;;;-0.18;70.03
62402;BME280;48440;51.224;22.506;2023-04-05T02:37:51;99590.84;;;-0.23;70.40
62402;BME280;48440;51.224;22.506;2023-04-05T02:40:17;99591.31;;;-0.20;69.93
62402;BME280;48440;51.224;22.506;2023-04-05T02:42:42;99591.84;;;-0.24;70.62
62402;BME280;48440;51.224;22.506;2023-04-05T02:45:08;99591.84;;;-0.24;70.46
62402;BME280;48440;51.224;22.506;2023-04-05T02:47:33;99588.25;;;-0.31;70.61
62402;BME280;48440;51.224;22.506;2023-04-05T02:49:59;99582.56;;;-0.28;70.58
62402;BME280;48440;51.224;22.506;2023-04-05T02:52:25;99590.19;;;-0.25;70.51
62402;BME280;48440;51.224;22.506;2023-04-05T02:54:50;99584.41;;;-0.29;70.64
62402;BME280;48440;51.224;22.506;2023-04-05T02:57:17;99584.75;;;-0.32;70.50
62402;BME280;48440;51.224;22.506;2023-04-05T02:59:42;99593.28;;;-0.37;70.78
62402;BME280;48440;51.224;22.506;2023-04-05T03:02:09;99589.47;;;-0.42;70.71
62402;BME280;48440;51.224;22.506;2023-04-05T03:04:35;99587.66;;;-0.42;70.91
62402;BME280;48440;51.224;22.506;2023-04-05T03:07:02;99586.34;;;-0.46;71.09
62402;BME280;48440;51.224;22.506;2023-04-05T03:09:30;99577.84;;;-0.49;70.75
62402;BME280;48440;51.224;22.506;2023-04-05T03:12:01;99590.75;;;-0.53;71.16
62402;BME280;48440;51.224;22.506;2023-04-05T03:14:30;99594.75;;;-0.57;70.85
62402;BME280;48440;51.224;22.506;2023-04-05T03:16:56;99582.53;;;-0.51;71.22
62402;BME280;48440;51.224;22.506;2023-04-05T03:19:23;99584.28;;;-0.58;71.63
62402;BME280;48440;51.224;22.506;2023-04-05T03:21:51;99584.78;;;-0.63;71.25
62402;BME280;48440;51.224;22.506;2023-04-05T03:24:16;99589.16;;;-0.70;71.58
62402;BME280;48440;51.224;22.506;2023-04-05T03:26:42;99587.16;;;-0.68;71.70
62402;BME280;48440;51.224;22.506;2023-04-05T03:29:08;99585.97;;;-0.65;71.48
62402;BME280;48440;51.224;22.506;2023-04-05T03:31:33;99585.50;;;-0.69;71.29
62402;BME280;48440;51.224;22.506;2023-04-05T03:33:59;99588.69;;;-0.74;71.33
62402;BME280;48440;51.224;22.506;2023-04-05T03:36:24;99579.19;;;-0.76;71.75
62402;BME280;48440;51.224;22.506;2023-04-05T03:38:52;99592.91;;;-0.79;71.82
62402;BME280;48440;51.224;22.506;2023-04-05T03:41:20;99588.41;;;-0.79;71.91
62402;BME280;48440;51.224;22.506;2023-04-05T03:43:45;99586.41;;;-0.85;71.87
62402;BME280;48440;51.224;22.506;2023-04-05T03:46:11;99586.06;;;-0.82;72.21
62402;BME280;48440;51.224;22.506;2023-04-05T03:48:36;99589.09;;;-0.85;71.84
62402;BME280;48440;51.224;22.506;2023-04-05T03:51:02;99587.94;;;-0.90;72.22
62402;BME280;48440;51.224;22.506;2023-04-05T03:53:27;99588.47;;;-0.95;71.96
62402;BME280;48440;51.224;22.506;2023-04-05T03:55:54;99589.28;;;-0.94;72.30
62402;BME280;48440;51.224;22.506;2023-04-05T03:58:20;99583.78;;;-0.93;72.06
62402;BME280;48440;51.224;22.506;2023-04-05T04:00:46;99587.63;;;-0.95;71.86
62402;BME280;48440;51.224;22.506;2023-04-05T04:03:11;99589.28;;;-0.94;72.24
62402;BME280;48440;51.224;22.506;2023-04-05T04:05:38;99586.78;;;-0.96;72.16
62402;BME280;48440;51.224;22.506;2023-04-05T04:08:06;99592.13;;;-0.96;72.41
62402;BME280;48440;51.224;22.506;2023-04-05T04:10:33;99585.78;;;-0.95;72.05
62402;BME280;48440;51.224;22.506;2023-04-05T04:12:58;99578.63;;;-0.94;72.38
62402;BME280;48440;51.224;22.506;2023-04-05T04:15:24;99589.13;;;-0.93;72.38
62402;BME280;48440;51.224;22.506;2023-04-05T04:17:49;99587.13;;;-0.91;72.34
62402;BME280;48440;51.224;22.506;2023-04-05T04:20:14;99580.47;;;-0.95;72.16
62402;BME280;48440;51.224;22.506;2023-04-05T04:22:40;99580.94;;;-0.91;72.38
62402;BME280;48440;51.224;22.506;2023-04-05T04:25:09;99579.78;;;-0.89;72.54
62402;BME280;48440;51.224;22.506;2023-04-05T04:27:44;99578.78;;;-0.88;72.43
62402;BME280;48440;51.224;22.506;2023-04-05T04:30:14;99590.75;;;-0.84;72.20
62402;BME280;48440;51.224;22.506;2023-04-05T04:32:41;99594.25;;;-0.83;72.09
62402;BME280;48440;51.224;22.506;2023-04-05T04:35:27;99590.41;;;-0.81;72.19
62402;BME280;48440;51.224;22.506;2023-04-05T04:37:57;99589.56;;;-0.81;72.84
62402;BME280;48440;51.224;22.506;2023-04-05T04:40:27;99587.34;;;-0.78;72.55
62402;BME280;48440;51.224;22.506;2023-04-05T04:42:54;99581.03;;;-0.77;72.43
62402;BME280;48440;51.224;22.506;2023-04-05T04:45:23;99595.34;;;-0.78;72.22
62402;BME280;48440;51.224;22.506;2023-04-05T04:47:49;99595.34;;;-0.78;72.65
62402;BME280;48440;51.224;22.506;2023-04-05T04:50:18;99593.91;;;-0.80;72.27
62402;BME280;48440;51.224;22.506;2023-04-05T04:52:44;99599.69;;;-0.77;72.17
62402;BME280;48440;51.224;22.506;2023-04-05T04:55:11;99606.00;;;-0.78;72.11
62402;BME280;48440;51.224;22.506;2023-04-05T04:57:41;99607.88;;;-0.78;72.12
62402;BME280;48440;51.224;22.506;2023-04-05T05:00:08;99608.16;;;-0.73;72.57
62402;BME280;48440;51.224;22.506;2023-04-05T05:02:38;99613.00;;;-0.77;72.83
62402;BME280;48440;51.224;22.506;2023-04-05T05:05:05;99618.34;;;-0.77;72.88
62402;BME280;48440;51.224;22.506;2023-04-05T05:07:31;99610.16;;;-0.75;72.82
62402;BME280;48440;51.224;22.506;2023-04-05T05:09:56;99617.50;;;-0.77;72.27
62402;BME280;48440;51.224;22.506;2023-04-05T05:12:21;99618.16;;;-0.75;72.51
62402;BME280;48440;51.224;22.506;2023-04-05T05:14:47;99621.38;;;-0.80;72.68
62402;BME280;48440;51.224;22.506;2023-04-05T05:17:13;99624.88;;;-0.79;72.32
62402;BME280;48440;51.224;22.506;2023-04-05T05:19:38;99627.53;;;-0.79;72.74
62402;BME280;48440;51.224;22.506;2023-04-05T05:22:04;99629.53;;;-0.81;72.63
62402;BME280;48440;51.224;22.506;2023-04-05T05:24:29;99625.50;;;-0.77;72.60
62402;BME280;48440;51.224;22.506;2023-04-05T05:26:55;99618.53;;;-0.78;72.56
62402;BME280;48440;51.224;22.506;2023-04-05T05:29:20;99617.47;;;-0.69;72.30
62402;BME280;48440;51.224;22.506;2023-04-05T05:31:45;99623.13;;;-0.64;71.97
62402;BME280;48440;51.224;22.506;2023-04-05T05:34:11;99617.31;;;-0.68;71.90
62402;BME280;48440;51.224;22.506;2023-04-05T05:36:36;99633.47;;;-0.69;71.72
62402;BME280;48440;51.224;22.506;2023-04-05T05:39:02;99627.81;;;-0.74;72.06
62402;BME280;48440;51.224;22.506;2023-04-05T05:41:30;99625.34;;;-0.76;72.78
62402;BME280;48440;51.224;22.506;2023-04-05T05:43:55;99629.47;;;-0.73;72.59
62402;BME280;48440;51.224;22.506;2023-04-05T05:46:20;99636.13;;;-0.69;72.76
62402;BME280;48440;51.224;22.506;2023-04-05T05:48:46;99632.78;;;-0.63;72.65
62402;BME280;48440;51.224;22.506;2023-04-05T05:51:11;99631.13;;;-0.64;72.71
62402;BME280;48440;51.224;22.506;2023-04-05T05:53:38;99628.44;;;-0.64;72.59
62402;BME280;48440;51.224;22.506;2023-04-05T05:56:03;99638.75;;;-0.61;72.77
62402;BME280;48440;51.224;22.506;2023-04-05T05:58:30;99639.09;;;-0.64;72.87
62402;BME280;48440;51.224;22.506;2023-04-05T06:00:56;99626.63;;;-0.63;72.77
62402;BME280;48440;51.224;22.506;2023-04-05T06:03:22;99629.28;;;-0.63;73.22
62402;BME280;48440;51.224;22.506;2023-04-05T06:05:55;99629.75;;;-0.60;72.69
62402;BME280;48440;51.224;22.506;2023-04-05T06:08:22;99632.91;;;-0.56;72.45
62402;BME280;48440;51.224;22.506;2023-04-05T06:10:48;99637.06;;;-0.54;72.57
62402;BME280;48440;51.224;22.506;2023-04-05T06:13:14;99638.91;;;-0.54;72.47
62402;BME280;48440;51.224;22.506;2023-04-05T06:15:41;99640.34;;;-0.52;72.41
62402;BME280;48440;51.224;22.506;2023-04-05T06:18:07;99640.34;;;-0.52;71.98
62402;BME280;48440;51.224;22.506;2023-04-05T06:20:33;99635.75;;;-0.58;71.90
62402;BME280;48440;51.224;22.506;2023-04-05T06:23:00;99639.59;;;-0.60;71.64
62402;BME280;48440;51.224;22.506;2023-04-05T06:25:25;99642.78;;;-0.65;71.42
62402;BME280;48440;51.224;22.506;2023-04-05T06:27:50;99640.59;;;-0.61;71.97
62402;BME280;48440;51.224;22.506;2023-04-05T06:30:16;99643.56;;;-0.56;71.66
62402;BME280;48440;51.224;22.506;2023-04-05T06:32:41;99652.50;;;-0.49;71.49
62402;BME280;48440;51.224;22.506;2023-04-05T06:35:07;99642.69;;;-0.49;71.69
62402;BME280;48440;51.224;22.506;2023-04-05T06:37:32;99646.00;;;-0.47;71.81
62402;BME280;48440;51.224;22.506;2023-04-05T06:39:58;99642.50;;;-0.47;71.42
62402;BME280;48440;51.224;22.506;2023-04-05T06:42:23;99647.16;;;-0.41;72.02
62402;BME280;48440;51.224;22.506;2023-04-05T06:44:49;99642.47;;;-0.39;71.80
62402;BME280;48440;51.224;22.506;2023-04-05T06:47:15;99644.78;;;-0.36;71.61
62402;BME280;48440;51.224;22.506;2023-04-05T06:49:40;99653.38;;;-0.26;71.96
62402;BME280;48440;51.224;22.506;2023-04-05T06:52:06;99645.84;;;-0.22;70.93
62402;BME280;48440;51.224;22.506;2023-04-05T06:54:33;99650.34;;;-0.23;70.77
62402;BME280;48440;51.224;22.506;2023-04-05T06:56:58;99651.91;;;-0.28;70.42
62402;BME280;48440;51.224;22.506;2023-04-05T06:59:23;99658.25;;;-0.29;70.27
62402;BME280;48440;51.224;22.506;2023-04-05T07:01:49;99645.69;;;-0.21;69.74
62402;BME280;48440;51.224;22.506;2023-04-05T07:04:14;99653.69;;;-0.21;69.96
62402;BME280;48440;51.224;22.506;2023-04-05T07:06:40;99658.66;;;-0.18;70.04
62402;BME280;48440;51.224;22.506;2023-04-05T07:09:05;99648.94;;;-0.11;70.16
62402;BME280;48440;51.224;22.506;2023-04-05T07:11:31;99661.94;;;-0.08;70.37
62402;BME280;48440;51.224;22.506;2023-04-05T07:13:58;99664.13;;;-0.11;69.92
62402;BME280;48440;51.224;22.506;2023-04-05T07:16:24;99667.63;;;-0.11;70.01
62402;BME280;48440;51.224;22.506;2023-04-05T07:18:49;99668.81;;;-0.13;69.81
62402;BME280;48440;51.224;22.506;2023-04-05T07:21:15;99654.75;;;-0.07;69.39
62402;BME280;48440;51.224;22.506;2023-04-05T07:23:41;99669.63;;;-0.13;69.12
62402;BME280;48440;51.224;22.506;2023-04-05T07:26:07;99658.97;;;-0.13;69.25
62402;BME280;48440;51.224;22.506;2023-04-05T07:28:33;99668.47;;;-0.10;69.12
62402;BME280;48440;51.224;22.506;2023-04-05T07:31:00;99671.06;;;-0.02;69.17
62402;BME280;48440;51.224;22.506;2023-04-05T07:33:26;99670.00;;;0.07;68.96
62402;BME280;48440;51.224;22.506;2023-04-05T07:35:55;99673.78;;;0.13;68.24
62402;BME280;48440;51.224;22.506;2023-04-05T07:38:25;99659.25;;;0.15;68.12
62402;BME280;48440;51.224;22.506;2023-04-05T07:40:51;99656.78;;;0.14;68.13
62402;BME280;48440;51.224;22.506;2023-04-05T07:43:19;99661.03;;;0.23;68.33
62402;BME280;48440;51.224;22.506;2023-04-05T07:45:44;99659.47;;;0.28;68.00
62402;BME280;48440;51.224;22.506;2023-04-05T07:48:10;99671.81;;;0.29;67.61
62402;BME280;48440;51.224;22.506;2023-04-05T07:50:35;99668.31;;;0.29;66.53
62402;BME280;48440;51.224;22.506;2023-04-05T07:53:04;99663.25;;;0.34;65.80
62402;BME280;48440;51.224;22.506;2023-04-05T07:55:29;99669.31;;;0.28;66.17
62402;BME280;48440;51.224;22.506;2023-04-05T07:57:55;99662.63;;;0.32;67.18
62402;BME280;48440;51.224;22.506;2023-04-05T08:00:22;99658.34;;;0.46;67.02
62402;BME280;48440;51.224;22.506;2023-04-05T08:02:48;99664.16;;;0.49;66.87
62402;BME280;48440;51.224;22.506;2023-04-05T08:05:13;99665.16;;;0.48;67.37
62402;BME280;48440;51.224;22.506;2023-04-05T08:07:38;99659.63;;;0.50;67.36
62402;BME280;48440;51.224;22.506;2023-04-05T08:10:04;99664.88;;;0.58;66.97
62402;BME280;48440;51.224;22.506;2023-04-05T08:12:30;99657.69;;;0.58;67.06
62402;BME280;48440;51.224;22.506;2023-04-05T08:14:56;99656.88;;;0.58;66.26
62402;BME280;48440;51.224;22.506;2023-04-05T08:17:22;99655.22;;;0.57;65.68
62402;BME280;48440;51.224;22.506;2023-04-05T08:19:51;99664.06;;;0.57;65.62
62402;BME280;48440;51.224;22.506;2023-04-05T08:22:17;99653.28;;;0.80;65.70
62402;BME280;48440;51.224;22.506;2023-04-05T08:24:43;99660.50;;;0.94;65.65
62402;BME280;48440;51.224;22.506;2023-04-05T08:27:08;99669.28;;;1.03;65.02
62402;BME280;48440;51.224;22.506;2023-04-05T08:29:34;99663.91;;;1.18;64.43
62402;BME280;48440;51.224;22.506;2023-04-05T08:31:59;99669.44;;;1.16;64.74
62402;BME280;48440;51.224;22.506;2023-04-05T08:34:25;99666.59;;;1.18;64.43
62402;BME280;48440;51.224;22.506;2023-04-05T08:36:50;99661.41;;;1.16;63.90
62402;BME280;48440;51.224;22.506;2023-04-05T08:39:15;99670.25;;;1.31;63.65
62402;BME280;48440;51.224;22.506;2023-04-05T08:41:52;99669.59;;;1.44;63.55
62402;BME280;48440;51.224;22.506;2023-04-05T08:44:21;99668.91;;;1.57;63.83
62402;BME280;48440;51.224;22.506;2023-04-05T08:46:48;99671.47;;;1.65;63.55
62402;BME280;48440;51.224;22.506;2023-04-05T08:49:15;99679.41;;;1.73;63.09
62402;BME280;48440;51.224;22.506;2023-04-05T08:51:40;99673.69;;;1.76;62.73
62402;BME280;48440;51.224;22.506;2023-04-05T08:54:05;99670.38;;;1.74;63.03
62402;BME280;48440;51.224;22.506;2023-04-05T08:56:33;99663.75;;;1.91;62.80
62402;BME280;48440;51.224;22.506;2023-04-05T08:59:04;99666.50;;;2.19;61.68
62402;BME280;48440;51.224;22.506;2023-04-05T09:01:31;99662.19;;;2.46;61.56
62402;BME280;48440;51.224;22.506;2023-04-05T09:04:01;99660.63;;;2.86;61.16
62402;BME280;48440;51.224;22.506;2023-04-05T09:06:27;99661.56;;;3.00;60.64
62402;BME280;48440;51.224;22.506;2023-04-05T09:08:55;99656.88;;;3.15;60.10
62402;BME280;48440;51.224;22.506;2023-04-05T09:11:21;99665.94;;;3.08;59.17
62402;BME280;48440;51.224;22.506;2023-04-05T09:13:47;99658.03;;;2.99;59.03
62402;BME280;48440;51.224;22.506;2023-04-05T09:16:14;99658.38;;;2.90;58.88
62402;BME280;48440;51.224;22.506;2023-04-05T09:18:40;99650.13;;;3.80;57.85
62402;BME280;48440;51.224;22.506;2023-04-05T09:21:06;99652.69;;;4.48;56.59
62402;BME280;48440;51.224;22.506;2023-04-05T09:23:35;99645.00;;;5.04;55.10
62402;BME280;48440;51.224;22.506;2023-04-05T09:26:17;99643.97;;;5.63;54.12
62402;BME280;48440;51.224;22.506;2023-04-05T09:28:43;99639.06;;;5.85;51.74
62402;BME280;48440;51.224;22.506;2023-04-05T09:31:09;99654.19;;;5.86;52.89
62402;BME280;48440;51.224;22.506;2023-04-05T09:33:35;99636.22;;;5.35;52.50
62402;BME280;48440;51.224;22.506;2023-04-05T09:36:01;99639.38;;;5.12;53.76
62402;BME280;48440;51.224;22.506;2023-04-05T09:38:43;99640.47;;;4.71;53.87
62402;BME280;48440;51.224;22.506;2023-04-05T09:41:09;99644.03;;;4.32;53.97
62402;BME280;48440;51.224;22.506;2023-04-05T09:43:38;99658.03;;;4.01;54.87
62402;BME280;48440;51.224;22.506;2023-04-05T09:46:04;99659.63;;;3.76;55.23
62402;BME280;48440;51.224;22.506;2023-04-05T09:51:16;99658.28;;;4.59;55.20
62402;BME280;48440;51.224;22.506;2023-04-05T09:56:23;99668.41;;;4.70;51.65
62402;BME280;48440;51.224;22.506;2023-04-05T09:58:52;99661.06;;;5.24;52.36
62402;BME280;48440;51.224;22.506;2023-04-05T10:01:18;99662.28;;;5.34;49.93
62402;BME280;48440;51.224;22.506;2023-04-05T10:03:48;99653.13;;;5.49;49.36
62402;BME280;48440;51.224;22.506;2023-04-05T10:06:17;99654.91;;;5.10;48.81
62402;BME280;48440;51.224;22.506;2023-04-05T10:08:45;99652.91;;;4.79;49.51
62402;BME280;48440;51.224;22.506;2023-04-05T10:11:11;99656.00;;;4.50;50.97
62402;BME280;48440;51.224;22.506;2023-04-05T10:13:39;99648.75;;;4.83;51.63
62402;BME280;48440;51.224;22.506;2023-04-05T10:16:10;99642.59;;;5.40;51.62
62402;BME280;48440;51.224;22.506;2023-04-05T10:18:46;99643.06;;;5.31;50.09
62402;BME280;48440;51.224;22.506;2023-04-05T10:21:14;99643.53;;;5.01;50.20
62402;BME280;48440;51.224;22.506;2023-04-05T10:23:45;99644.84;;;4.59;49.83
62402;BME280;48440;51.224;22.506;2023-04-05T10:26:36;99643.41;;;4.37;50.83
62402;BME280;48440;51.224;22.506;2023-04-05T10:29:11;99630.50;;;4.98;50.25
62402;BME280;48440;51.224;22.506;2023-04-05T10:31:53;99629.19;;;5.27;49.64
62402;BME280;48440;51.224;22.506;2023-04-05T10:34:30;99629.59;;;5.31;49.61
62402;BME280;48440;51.224;22.506;2023-04-05T10:37:00;99622.03;;;5.01;49.80
62402;BME280;48440;51.224;22.506;2023-04-05T10:42:06;99621.03;;;4.83;49.46
62402;BME280;48440;51.224;22.506;2023-04-05T10:44:35;99617.38;;;5.28;49.39
62402;BME280;48440;51.224;22.506;2023-04-05T10:47:03;99622.41;;;5.69;49.49
62402;BME280;48440;51.224;22.506;2023-04-05T10:49:39;99622.63;;;5.61;49.25
62402;BME280;48440;51.224;22.506;2023-04-05T10:52:07;99619.88;;;5.23;46.79
62402;BME280;48440;51.224;22.506;2023-04-05T10:54:34;99620.78;;;4.97;46.79
62402;BME280;48440;51.224;22.506;2023-04-05T10:57:08;99615.16;;;5.19;48.17
62402;BME280;48440;51.224;22.506;2023-04-05T10:59:35;99613.31;;;5.19;47.74
62402;BME280;48440;51.224;22.506;2023-04-05T11:02:05;99613.53;;;5.11;48.37
62402;BME280;48440;51.224;22.506;2023-04-05T11:04:32;99615.63;;;4.96;48.48
62402;BME280;48440;51.224;22.506;2023-04-05T11:07:18;99620.63;;;4.86;48.72
62402;BME280;48440;51.224;22.506;2023-04-05T11:10:03;99608.47;;;4.63;48.92
62402;BME280;48440;51.224;22.506;2023-04-05T11:15:39;99616.09;;;4.53;49.90
62402;BME280;48440;51.224;22.506;2023-04-05T11:18:20;99619.63;;;4.47;49.37
62402;BME280;48440;51.224;22.506;2023-04-05T11:20:48;99615.09;;;4.34;48.89
62402;BME280;48440;51.224;22.506;2023-04-05T11:23:21;99610.31;;;4.23;48.58
62402;BME280;48440;51.224;22.506;2023-04-05T11:25:50;99614.69;;;4.37;48.53
62402;BME280;48440;51.224;22.506;2023-04-05T11:28:36;99610.50;;;4.74;49.21
62402;BME280;48440;51.224;22.506;2023-04-05T11:31:17;99615.25;;;4.86;48.10
62402;BME280;48440;51.224;22.506;2023-04-05T11:36:08;99611.94;;;4.84;47.58
62402;BME280;48440;51.224;22.506;2023-04-05T11:38:35;99612.38;;;4.67;47.70
62402;BME280;48440;51.224;22.506;2023-04-05T11:41:14;99609.69;;;4.48;47.72
62402;BME280;48440;51.224;22.506;2023-04-05T11:43:45;99622.13;;;4.29;48.18
62402;BME280;48440;51.224;22.506;2023-04-05T11:46:15;99613.84;;;4.11;48.86
62402;BME280;48440;51.224;22.506;2023-04-05T11:48:41;99611.38;;;4.09;49.04
62402;BME280;48440;51.224;22.506;2023-04-05T11:51:09;99616.50;;;4.04;48.74
62402;BME280;48440;51.224;22.506;2023-04-05T11:53:36;99625.81;;;4.01;48.77
62402;BME280;48440;51.224;22.506;2023-04-05T11:56:11;99610.13;;;4.05;47.47
62402;BME280;48440;51.224;22.506;2023-04-05T11:58:40;99612.59;;;4.20;47.13
62402;BME280;48440;51.224;22.506;2023-04-05T12:01:06;99613.63;;;4.25;46.04
62402;BME280;48440;51.224;22.506;2023-04-05T12:03:33;99614.25;;;4.21;45.49
62402;BME280;48440;51.224;22.506;2023-04-05T12:06:04;99606.38;;;4.19;45.12
62402;BME280;48440;51.224;22.506;2023-04-05T12:08:48;99603.50;;;4.21;45.70
62402;BME280;48440;51.224;22.506;2023-04-05T12:11:24;99611.38;;;4.16;45.37
62402;BME280;48440;51.224;22.506;2023-04-05T12:13:53;99613.00;;;4.17;45.75
62402;BME280;48440;51.224;22.506;2023-04-05T12:16:19;99612.19;;;4.09;45.76
62402;BME280;48440;51.224;22.506;2023-04-05T12:18:52;99608.06;;;4.07;46.25
62402;BME280;48440;51.224;22.506;2023-04-05T12:21:18;99603.50;;;4.07;45.04
62402;BME280;48440;51.224;22.506;2023-04-05T12:23:44;99610.31;;;4.03;44.82
62402;BME280;48440;51.224;22.506;2023-04-05T12:26:09;99608.44;;;3.97;44.64
62402;BME280;48440;51.224;22.506;2023-04-05T12:28:55;99610.72;;;3.94;43.46
62402;BME280;48440;51.224;22.506;2023-04-05T12:31:40;99607.84;;;4.02;43.49
62402;BME280;48440;51.224;22.506;2023-04-05T12:34:06;99602.25;;;4.03;43.27
62402;BME280;48440;51.224;22.506;2023-04-05T12:36:32;99601.44;;;4.16;43.40
62402;BME280;48440;51.224;22.506;2023-04-05T12:38:58;99602.06;;;4.25;43.66
62402;BME280;48440;51.224;22.506;2023-04-05T12:41:30;99610.31;;;4.23;44.25
62402;BME280;48440;51.224;22.506;2023-04-05T12:43:56;99602.25;;;4.23;44.10
62402;BME280;48440;51.224;22.506;2023-04-05T12:49:05;99595.63;;;3.99;45.11
62402;BME280;48440;51.224;22.506;2023-04-05T12:51:30;99602.84;;;3.92;45.92
62402;BME280;48440;51.224;22.506;2023-04-05T12:53:56;99599.97;;;3.87;47.15
62402;BME280;48440;51.224;22.506;2023-04-05T12:56:22;99604.50;;;3.80;46.96
62402;BME280;48440;51.224;22.506;2023-04-05T12:58:48;99594.56;;;3.74;48.03
62402;BME280;48440;51.224;22.506;2023-04-05T13:01:16;99611.91;;;3.71;48.31
62402;BME280;48440;51.224;22.506;2023-04-05T13:03:46;99611.91;;;3.71;48.33
62402;BME280;48440;51.224;22.506;2023-04-05T13:06:11;99610.06;;;3.72;48.60
62402;BME280;48440;51.224;22.506;2023-04-05T13:08:37;99617.50;;;3.77;49.06
62402;BME280;48440;51.224;22.506;2023-04-05T13:11:02;99611.53;;;3.81;49.18
62402;BME280;48440;51.224;22.506;2023-04-05T13:13:28;99611.13;;;3.84;48.69
62402;BME280;48440;51.224;22.506;2023-04-05T13:15:53;99605.75;;;3.91;48.26
62402;BME280;48440;51.224;22.506;2023-04-05T13:18:19;99609.47;;;3.96;48.06
62402;BME280;48440;51.224;22.506;2023-04-05T13:20:45;99601.84;;;4.00;47.39
62402;BME280;48440;51.224;22.506;2023-04-05T13:23:10;99604.09;;;3.96;46.90
62402;BME280;48440;51.224;22.506;2023-04-05T13:25:40;99608.44;;;3.91;46.54
62402;BME280;48440;51.224;22.506;2023-04-05T13:28:06;99607.41;;;3.92;46.48
62402;BME280;48440;51.224;22.506;2023-04-05T13:30:32;99611.34;;;3.89;46.69